Time;durP1;ratioP1;P1;durP2;ratioP2;P2;SDS_P1;SDS_P2;PMS_P1;PMS_P2;Temp;Humidity;BMP_temperature;BMP_pressure;BME280_temperature;BME280_humidity;BME280_pressure;Samples;Min_cycle;Max_cycle;Signal;HPM_P1;HPM_P2
2021/11/10 00:01:35;;;;;;;3.77;3.37;;;;;;;;;;5063317;28;20177;-76
2021/11/10 00:04:01;;;;;;;3.30;3.00;;;;;;;;;;5072272;28;20196;-77
2021/11/10 00:06:27;;;;;;;5.13;3.30;;;;;;;;;;5075881;28;20613;-76
2021/11/10 00:08:53;;;;;;;4.53;3.10;;;;;;;;;;5059158;28;20230;-77
2021/11/10 00:11:20;;;;;;;4.57;3.60;;;;;;;;;;5066770;28;20577;-76
2021/11/10 00:13:46;;;;;;;3.50;3.10;;;;;;;;;;5060718;28;20512;-76
2021/11/10 00:16:12;;;;;;;3.97;2.90;;;;;;;;;;5056893;28;20191;-76
2021/11/10 00:18:38;;;;;;;4.60;3.23;;;;;;;;;;5062672;28;20180;-77
2021/11/10 00:21:06;;;;;;;4.07;3.13;;;;;;;;;;5082187;28;20181;-76
2021/11/10 00:23:32;;;;;;;5.80;3.20;;;;;;;;;;5083502;28;20199;-77
2021/11/10 00:25:58;;;;;;;3.50;2.93;;;;;;;;;;5068253;28;20179;-76
2021/11/10 00:28:24;;;;;;;4.67;3.00;;;;;;;;;;5076454;28;20184;-77
2021/11/10 00:30:51;;;;;;;3.83;3.20;;;;;;;;;;5060381;28;20205;-76
2021/11/10 00:33:17;;;;;;;4.03;3.00;;;;;;;;;;5056843;28;20176;-76
2021/11/10 00:35:43;;;;;;;3.50;2.93;;;;;;;;;;5088876;28;20240;-77
2021/11/10 00:38:09;;;;;;;3.93;2.93;;;;;;;;;;5051734;28;20181;-76
2021/11/10 00:40:36;;;;;;;4.10;3.17;;;;;;;;;;5071345;28;20187;-76
2021/11/10 00:43:02;;;;;;;6.10;3.00;;;;;;;;;;5079840;28;20538;-76
2021/11/10 00:45:28;;;;;;;3.57;2.90;;;;;;;;;;5068482;28;20681;-76
2021/11/10 00:47:54;;;;;;;4.40;3.60;;;;;;;;;;5046972;28;20224;-76
2021/11/10 00:50:20;;;;;;;3.93;3.00;;;;;;;;;;5039983;28;20367;-77
2021/11/10 00:52:50;;;;;;;4.77;2.80;;;;;;;;;;5045022;28;20173;-77
2021/11/10 00:55:16;;;;;;;3.40;3.10;;;;;;;;;;5051224;28;20181;-77
2021/11/10 00:57:44;;;;;;;4.37;3.27;;;;;;;;;;5068382;28;20173;-76
2021/11/10 01:00:11;;;;;;;5.70;2.80;;;;;;;;;;5047278;28;20280;-76
2021/11/10 01:02:37;;;;;;;3.47;3.17;;;;;;;;;;5068750;28;20267;-77
2021/11/10 01:05:04;;;;;;;3.70;3.13;;;;;;;;;;5049455;28;20192;-77
2021/11/10 01:07:30;;;;;;;4.50;2.97;;;;;;;;;;5043445;28;20207;-76
2021/11/10 01:10:02;;;;;;;4.80;3.30;;;;;;;;;;5049016;28;20220;-76
2021/11/10 01:12:29;;;;;;;4.57;3.20;;;;;;;;;;5049028;28;20304;-76
2021/11/10 01:14:55;;;;;;;5.07;3.00;;;;;;;;;;5054945;28;20425;-76
2021/11/10 01:17:21;;;;;;;4.60;3.20;;;;;;;;;;5045170;28;20597;-77
2021/11/10 01:19:48;;;;;;;3.70;2.90;;;;;;;;;;5055100;28;20176;-77
2021/11/10 01:22:14;;;;;;;3.50;2.77;;;;;;;;;;5048632;28;20798;-77
2021/11/10 01:24:43;;;;;;;4.00;3.03;;;;;;;;;;5043320;28;20204;-77
2021/11/10 01:27:09;;;;;;;4.70;3.20;;;;;;;;;;5047700;28;20192;-76
2021/11/10 01:29:38;;;;;;;3.83;2.57;;;;;;;;;;5039021;28;20213;-77
2021/11/10 01:32:05;;;;;;;4.60;2.93;;;;;;;;;;5050211;28;20218;-77
2021/11/10 01:34:31;;;;;;;3.37;3.07;;;;;;;;;;5049456;28;20185;-77
2021/11/10 01:36:57;;;;;;;3.70;3.10;;;;;;;;;;5043043;28;20253;-76
2021/11/10 01:39:24;;;;;;;3.90;3.40;;;;;;;;;;5058885;28;20264;-76
2021/11/10 01:41:51;;;;;;;3.40;2.50;;;;;;;;;;5061278;28;20227;-77
2021/11/10 01:44:27;;;;;;;2.70;2.50;;;;;;;;;;5046868;28;20215;-77
2021/11/10 01:46:55;;;;;;;3.03;2.73;;;;;;;;;;5035013;28;20169;-77
2021/11/10 01:49:22;;;;;;;3.63;2.83;;;;;;;;;;5052503;28;20220;-76
2021/11/10 01:51:52;;;;;;;5.13;3.33;;;;;;;;;;5047486;28;20583;-77
2021/11/10 01:54:23;;;;;;;3.53;2.90;;;;;;;;;;5043312;28;20196;-77
2021/11/10 01:56:49;;;;;;;3.37;2.80;;;;;;;;;;5082274;28;20172;-77
2021/11/10 01:59:29;;;;;;;3.73;2.63;;;;;;;;;;5056821;28;20210;-76
2021/11/10 02:01:56;;;;;;;5.93;3.03;;;;;;;;;;5052031;28;20185;-76
2021/11/10 02:04:22;;;;;;;2.70;2.50;;;;;;;;;;5081642;28;20195;-77
2021/11/10 02:06:48;;;;;;;4.53;3.20;;;;;;;;;;5053364;28;20232;-77
2021/11/10 02:09:14;;;;;;;3.10;2.80;;;;;;;;;;5070492;28;20275;-76
2021/11/10 02:11:40;;;;;;;3.30;3.00;;;;;;;;;;5078465;28;20173;-77
2021/11/10 02:14:07;;;;;;;5.57;3.80;;;;;;;;;;5074435;28;20185;-77
2021/11/10 02:16:38;;;;;;;3.80;2.90;;;;;;;;;;5061292;28;20278;-76
2021/11/10 02:19:05;;;;;;;2.77;2.50;;;;;;;;;;5084775;28;20654;-76
2021/11/10 02:21:32;;;;;;;4.23;2.90;;;;;;;;;;5081278;28;20267;-77
2021/11/10 02:23:59;;;;;;;2.80;2.53;;;;;;;;;;5047338;28;20181;-76
2021/11/10 02:26:25;;;;;;;2.67;2.47;;;;;;;;;;5077945;28;20254;-77
2021/11/10 02:28:51;;;;;;;3.10;2.80;;;;;;;;;;5075034;28;20181;-77
2021/11/10 02:31:18;;;;;;;4.27;3.10;;;;;;;;;;5056764;28;20291;-76
2021/11/10 02:33:44;;;;;;;4.17;2.73;;;;;;;;;;5060128;28;20213;-76
2021/11/10 02:36:12;;;;;;;3.63;3.10;;;;;;;;;;5079123;28;20617;-76
2021/11/10 02:38:39;;;;;;;3.40;2.70;;;;;;;;;;5066901;28;20282;-77
2021/11/10 02:41:05;;;;;;;3.20;2.73;;;;;;;;;;5058868;28;20184;-77
2021/11/10 02:43:31;;;;;;;3.60;2.53;;;;;;;;;;5067861;28;20606;-77
2021/11/10 02:45:58;;;;;;;3.03;2.57;;;;;;;;;;5072699;28;20506;-76
2021/11/10 02:48:24;;;;;;;3.03;2.73;;;;;;;;;;5049959;28;20232;-76
2021/11/10 02:50:51;;;;;;;3.37;2.77;;;;;;;;;;5037163;28;20213;-77
2021/11/10 02:53:17;;;;;;;2.93;2.50;;;;;;;;;;5038548;28;20329;-76
2021/11/10 02:55:43;;;;;;;2.93;2.40;;;;;;;;;;5042648;28;20185;-76
2021/11/10 02:58:10;;;;;;;4.60;2.50;;;;;;;;;;5044208;28;20670;-76
2021/11/10 03:00:36;;;;;;;5.17;2.60;;;;;;;;;;5048614;28;20256;-76
2021/11/10 03:03:04;;;;;;;4.40;2.43;;;;;;;;;;5042964;28;20292;-77
2021/11/10 03:05:31;;;;;;;3.50;3.10;;;;;;;;;;5044385;28;20907;-76
2021/11/10 03:07:57;;;;;;;3.00;2.70;;;;;;;;;;5070556;28;20180;-76
2021/11/10 03:10:24;;;;;;;3.13;2.47;;;;;;;;;;5053062;28;20200;-76
2021/11/10 03:12:50;;;;;;;3.50;2.47;;;;;;;;;;5050582;28;20191;-77
2021/11/10 03:15:17;;;;;;;3.03;2.50;;;;;;;;;;5071216;28;20858;-76
2021/11/10 03:17:44;;;;;;;5.03;2.83;;;;;;;;;;5051415;28;20709;-77
2021/11/10 03:20:10;;;;;;;3.43;2.40;;;;;;;;;;5036664;28;20180;-76
2021/11/10 03:22:36;;;;;;;3.33;2.50;;;;;;;;;;5039723;28;20177;-77
2021/11/10 03:25:03;;;;;;;4.00;2.47;;;;;;;;;;5052238;28;20176;-77
2021/11/10 03:27:29;;;;;;;3.40;2.87;;;;;;;;;;5042590;28;20205;-76
2021/11/10 03:29:55;;;;;;;3.47;2.77;;;;;;;;;;5044820;28;20201;-76
2021/11/10 03:32:22;;;;;;;2.80;2.43;;;;;;;;;;5043079;28;20200;-76
2021/11/10 03:34:50;;;;;;;2.97;2.60;;;;;;;;;;5044370;28;20648;-77
2021/11/10 03:37:16;;;;;;;4.10;3.00;;;;;;;;;;5057337;28;20183;-76
2021/11/10 03:39:42;;;;;;;3.43;2.53;;;;;;;;;;5057847;28;20416;-77
2021/11/10 03:42:08;;;;;;;3.40;2.83;;;;;;;;;;5048957;28;20263;-76
2021/11/10 03:44:34;;;;;;;3.03;2.63;;;;;;;;;;5067134;28;20184;-76
2021/11/10 03:47:00;;;;;;;3.17;2.87;;;;;;;;;;5052947;28;20211;-77
2021/11/10 03:49:27;;;;;;;4.80;2.70;;;;;;;;;;5061535;28;20256;-76
2021/11/10 03:51:54;;;;;;;2.83;2.50;;;;;;;;;;5050278;28;20184;-77
2021/11/10 03:54:21;;;;;;;3.67;2.93;;;;;;;;;;5041674;28;20312;-76
2021/11/10 03:56:47;;;;;;;3.53;2.67;;;;;;;;;;5039168;28;20173;-76
2021/11/10 03:59:13;;;;;;;3.97;2.83;;;;;;;;;;5046392;28;20176;-77
2021/11/10 04:01:40;;;;;;;3.87;3.07;;;;;;;;;;5059168;28;20230;-76
2021/11/10 04:04:06;;;;;;;3.40;3.00;;;;;;;;;;5037855;28;20287;-77
2021/11/10 04:06:33;;;;;;;3.73;2.73;;;;;;;;;;5041388;28;20199;-76
2021/11/10 04:08:59;;;;;;;4.73;3.37;;;;;;;;;;5050259;28;20211;-76
2021/11/10 04:11:25;;;;;;;4.70;3.03;;;;;;;;;;5049119;28;20197;-76
2021/11/10 04:13:53;;;;;;;4.07;3.40;;;;;;;;;;5039421;28;20180;-77
2021/11/10 04:16:22;;;;;;;4.23;3.33;;;;;;;;;;5045404;28;20181;-76
2021/11/10 04:18:53;;;;;;;5.27;2.87;;;;;;;;;;5041465;28;20645;-76
2021/11/10 04:21:19;;;;;;;4.30;2.80;;;;;;;;;;5036345;28;20188;-77
2021/11/10 04:23:46;;;;;;;4.40;2.93;;;;;;;;;;5046088;28;20184;-76
2021/11/10 04:26:12;;;;;;;5.07;3.40;;;;;;;;;;5047281;28;20222;-76
2021/11/10 04:28:38;;;;;;;5.80;3.37;;;;;;;;;;5064232;28;20188;-76
2021/11/10 04:31:05;;;;;;;3.40;3.00;;;;;;;;;;5059757;28;20212;-75
2021/11/10 04:33:31;;;;;;;4.60;3.27;;;;;;;;;;5063764;28;20189;-76
2021/11/10 04:35:57;;;;;;;3.00;2.73;;;;;;;;;;5040406;28;20177;-76
2021/11/10 04:38:23;;;;;;;4.67;3.17;;;;;;;;;;5043668;28;20193;-76
2021/11/10 04:40:50;;;;;;;4.50;3.53;;;;;;;;;;5065771;28;20200;-77
2021/11/10 04:43:16;;;;;;;4.77;3.63;;;;;;;;;;5040546;28;20619;-76
2021/11/10 04:45:44;;;;;;;3.70;3.30;;;;;;;;;;5067495;28;20191;-76
2021/11/10 04:48:10;;;;;;;4.97;3.47;;;;;;;;;;5048236;28;20272;-76
2021/11/10 04:50:38;;;;;;;4.17;3.73;;;;;;;;;;5068153;28;20212;-77
2021/11/10 04:53:04;;;;;;;3.53;3.23;;;;;;;;;;5061269;28;20226;-77
2021/11/10 04:55:30;;;;;;;4.57;3.43;;;;;;;;;;5092411;28;20172;-76
2021/11/10 04:57:56;;;;;;;4.63;3.77;;;;;;;;;;5082520;28;20225;-77
2021/11/10 05:00:22;;;;;;;4.13;3.70;;;;;;;;;;5080614;28;20180;-76
2021/11/10 05:02:49;;;;;;;4.93;3.77;;;;;;;;;;5061655;28;20200;-77
2021/11/10 05:05:15;;;;;;;6.13;4.40;;;;;;;;;;5073905;28;20627;-76
2021/11/10 05:07:41;;;;;;;5.40;4.10;;;;;;;;;;5069185;28;20194;-76
2021/11/10 05:10:08;;;;;;;10.50;4.60;;;;;;;;;;5071061;28;20354;-76
2021/11/10 05:12:34;;;;;;;6.47;4.13;;;;;;;;;;5070178;28;20529;-76
2021/11/10 05:15:00;;;;;;;4.90;4.20;;;;;;;;;;5073794;28;20259;-76
2021/11/10 05:17:27;;;;;;;5.70;3.60;;;;;;;;;;5064632;28;20177;-76
2021/11/10 05:19:53;;;;;;;5.93;3.87;;;;;;;;;;5052584;28;20188;-76
2021/11/10 05:22:19;;;;;;;4.53;3.87;;;;;;;;;;5080757;28;20759;-76
2021/11/10 05:24:45;;;;;;;7.97;3.77;;;;;;;;;;5085206;28;20187;-77
2021/11/10 05:27:11;;;;;;;8.57;4.67;;;;;;;;;;5078150;28;20195;-77
2021/11/10 05:29:37;;;;;;;5.80;4.53;;;;;;;;;;5074739;28;20295;-76
2021/11/10 05:32:04;;;;;;;4.67;3.50;;;;;;;;;;5056289;28;20177;-76
2021/11/10 05:34:30;;;;;;;5.17;3.93;;;;;;;;;;5075522;28;20637;-77
2021/11/10 05:36:56;;;;;;;8.50;4.03;;;;;;;;;;5064159;28;20168;-76
2021/11/10 05:39:22;;;;;;;5.57;3.90;;;;;;;;;;5087016;28;20184;-76
2021/11/10 05:41:48;;;;;;;6.93;4.53;;;;;;;;;;5061453;28;20183;-76
2021/11/10 05:44:15;;;;;;;4.53;3.80;;;;;;;;;;5072118;28;20181;-77
2021/11/10 05:46:41;;;;;;;4.40;3.63;;;;;;;;;;5055699;28;20414;-77
2021/11/10 05:49:07;;;;;;;5.70;4.40;;;;;;;;;;5091202;28;20662;-76
2021/11/10 05:51:35;;;;;;;6.63;4.30;;;;;;;;;;5064947;28;20732;-76
2021/11/10 05:54:02;;;;;;;5.53;4.23;;;;;;;;;;5062304;28;20214;-76
2021/11/10 05:56:32;;;;;;;4.87;3.60;;;;;;;;;;5059562;28;20180;-76
2021/11/10 05:59:02;;;;;;;4.70;3.63;;;;;;;;;;5071939;28;20214;-76
2021/11/10 06:01:28;;;;;;;4.67;4.13;;;;;;;;;;5083340;28;20184;-76
2021/11/10 06:03:54;;;;;;;5.77;3.93;;;;;;;;;;5065452;28;20534;-77
2021/11/10 06:06:27;;;;;;;4.70;4.13;;;;;;;;;;5058957;28;20181;-77
2021/11/10 06:08:54;;;;;;;6.87;3.87;;;;;;;;;;5063350;28;20260;-75
2021/11/10 06:11:20;;;;;;;7.07;4.50;;;;;;;;;;5062148;28;20248;-76
2021/11/10 06:13:46;;;;;;;5.87;3.83;;;;;;;;;;5085955;28;20181;-76
2021/11/10 06:16:12;;;;;;;4.27;3.87;;;;;;;;;;5072609;28;20920;-76
2021/11/10 06:18:38;;;;;;;4.13;3.40;;;;;;;;;;5073582;28;20184;-76
2021/11/10 06:21:05;;;;;;;5.57;4.37;;;;;;;;;;5086317;28;20184;-76
2021/11/10 06:23:31;;;;;;;5.50;3.93;;;;;;;;;;5091353;28;20205;-75
2021/11/10 06:25:57;;;;;;;5.50;4.07;;;;;;;;;;5085070;28;20182;-76
2021/11/10 06:28:23;;;;;;;5.33;4.67;;;;;;;;;;5088376;28;20183;-75
2021/11/10 06:30:49;;;;;;;4.40;4.00;;;;;;;;;;5071586;28;20212;-76
2021/11/10 06:33:15;;;;;;;4.50;4.10;;;;;;;;;;5066688;28;20185;-76
2021/11/10 06:35:42;;;;;;;6.53;3.97;;;;;;;;;;5083482;28;20191;-76
2021/11/10 06:38:08;;;;;;;4.97;4.07;;;;;;;;;;5067295;28;20255;-75
2021/11/10 06:40:34;;;;;;;4.33;3.77;;;;;;;;;;5070927;28;20211;-76
2021/11/10 06:43:00;;;;;;;4.87;4.37;;;;;;;;;;5084501;28;20632;-76
2021/11/10 06:45:26;;;;;;;4.43;3.90;;;;;;;;;;5079410;28;20226;-76
2021/11/10 06:47:53;;;;;;;6.63;4.10;;;;;;;;;;5070662;28;20188;-76
2021/11/10 06:50:19;;;;;;;4.63;4.13;;;;;;;;;;5047798;28;20739;-75
2021/11/10 06:52:45;;;;;;;7.43;4.03;;;;;;;;;;5056292;28;20181;-76
2021/11/10 06:55:11;;;;;;;5.17;4.60;;;;;;;;;;5057571;28;20539;-76
2021/11/10 06:57:38;;;;;;;6.03;3.90;;;;;;;;;;5059223;28;20212;-76
2021/11/10 07:00:05;;;;;;;5.77;4.70;;;;;;;;;;5047619;28;20219;-76
2021/11/10 07:02:31;;;;;;;6.17;4.30;;;;;;;;;;5041776;28;20211;-76
2021/11/10 07:04:57;;;;;;;6.17;3.73;;;;;;;;;;5064043;28;20172;-76
2021/11/10 07:07:24;;;;;;;9.43;4.37;;;;;;;;;;5041583;28;20286;-76
2021/11/10 07:09:50;;;;;;;5.10;3.63;;;;;;;;;;5070265;28;20515;-76
2021/11/10 07:12:16;;;;;;;7.23;3.97;;;;;;;;;;5048256;28;20184;-76
2021/11/10 07:14:42;;;;;;;6.10;4.40;;;;;;;;;;5035157;28;20662;-76
2021/11/10 07:17:08;;;;;;;6.03;4.00;;;;;;;;;;5045215;28;20275;-76
2021/11/10 07:19:37;;;;;;;4.50;4.10;;;;;;;;;;5058823;28;20636;-76
2021/11/10 07:22:03;;;;;;;4.70;3.60;;;;;;;;;;5045545;28;20187;-76
2021/11/10 07:24:29;;;;;;;4.80;3.90;;;;;;;;;;5066846;28;20232;-76
2021/11/10 07:26:56;;;;;;;7.00;4.23;;;;;;;;;;5070288;28;20165;-76
2021/11/10 07:29:22;;;;;;;4.93;4.10;;;;;;;;;;5048983;28;20187;-76
2021/11/10 07:31:48;;;;;;;5.50;3.80;;;;;;;;;;5061883;28;20582;-76
2021/11/10 07:34:14;;;;;;;5.10;3.93;;;;;;;;;;5072259;28;20371;-76
2021/11/10 07:36:40;;;;;;;7.03;4.20;;;;;;;;;;5039074;28;20185;-76
2021/11/10 07:39:07;;;;;;;7.33;4.47;;;;;;;;;;5045266;28;20271;-77
2021/11/10 07:41:35;;;;;;;6.83;4.77;;;;;;;;;;5071379;28;20180;-77
2021/11/10 07:44:01;;;;;;;5.33;4.63;;;;;;;;;;5058077;28;20188;-77
2021/11/10 07:46:29;;;;;;;7.93;4.90;;;;;;;;;;5038601;28;20192;-76
2021/11/10 07:48:55;;;;;;;6.67;4.77;;;;;;;;;;5077187;28;20212;-77
2021/11/10 07:51:21;;;;;;;9.40;5.00;;;;;;;;;;5065779;28;20199;-77
2021/11/10 07:53:47;;;;;;;13.07;5.33;;;;;;;;;;5090271;28;20176;-77
2021/11/10 07:56:14;;;;;;;9.37;5.33;;;;;;;;;;5066872;28;20188;-80
2021/11/10 07:58:40;;;;;;;9.70;5.10;;;;;;;;;;5062432;28;20177;-78
2021/11/10 08:01:11;;;;;;;9.73;5.73;;;;;;;;;;5052833;28;20191;-78
2021/11/10 08:03:37;;;;;;;11.73;5.63;;;;;;;;;;5061845;28;20449;-79
2021/11/10 08:06:03;;;;;;;9.60;6.20;;;;;;;;;;5077054;28;20206;-79
2021/11/10 08:08:30;;;;;;;8.80;5.77;;;;;;;;;;5084968;28;20180;-80
2021/11/10 08:10:57;;;;;;;6.03;4.83;;;;;;;;;;5075966;28;20200;-79
2021/11/10 08:13:24;;;;;;;13.17;6.30;;;;;;;;;;5071947;28;20433;-80
2021/11/10 08:15:51;;;;;;;10.13;5.63;;;;;;;;;;5086164;28;20487;-79
2021/11/10 08:18:17;;;;;;;6.60;5.30;;;;;;;;;;5071659;28;20954;-79
2021/11/10 08:20:43;;;;;;;11.17;5.53;;;;;;;;;;5081926;28;20493;-79
2021/11/10 08:23:10;;;;;;;12.53;5.20;;;;;;;;;;5075033;28;20531;-79
2021/11/10 08:25:36;;;;;;;6.27;4.57;;;;;;;;;;5067981;28;20948;-79
2021/11/10 08:28:02;;;;;;;8.90;4.80;;;;;;;;;;5083999;28;20188;-79
2021/11/10 08:30:28;;;;;;;6.23;4.60;;;;;;;;;;5060017;28;20265;-79
2021/11/10 08:32:54;;;;;;;8.00;4.80;;;;;;;;;;5061286;28;20176;-78
2021/11/10 08:35:21;;;;;;;8.40;4.90;;;;;;;;;;5075263;28;21166;-79
2021/11/10 08:37:47;;;;;;;5.70;4.70;;;;;;;;;;5058301;28;20180;-79
2021/11/10 08:40:13;;;;;;;10.20;4.17;;;;;;;;;;5080756;28;20433;-79
2021/11/10 08:42:40;;;;;;;5.97;4.67;;;;;;;;;;5086303;28;20659;-78
2021/11/10 08:45:14;;;;;;;6.13;5.07;;;;;;;;;;5066572;28;20287;-79
2021/11/10 08:47:43;;;;;;;7.30;4.83;;;;;;;;;;5083465;28;20229;-79
2021/11/10 08:50:10;;;;;;;8.00;5.17;;;;;;;;;;5074641;28;20199;-79
2021/11/10 08:52:37;;;;;;;6.43;5.33;;;;;;;;;;5066321;28;20176;-79
2021/11/10 08:55:07;;;;;;;8.00;4.60;;;;;;;;;;5073211;28;20175;-79
2021/11/10 08:57:34;;;;;;;7.30;4.50;;;;;;;;;;5088572;28;20192;-80
2021/11/10 09:00:00;;;;;;;6.17;4.87;;;;;;;;;;5086141;28;20219;-79
2021/11/10 09:02:26;;;;;;;5.53;4.67;;;;;;;;;;5070880;28;20215;-79
2021/11/10 09:04:52;;;;;;;5.10;4.60;;;;;;;;;;5072055;28;20574;-79
2021/11/10 09:07:18;;;;;;;5.47;4.53;;;;;;;;;;5065173;28;20654;-79
2021/11/10 09:09:44;;;;;;;5.23;4.53;;;;;;;;;;5068080;28;20241;-80
2021/11/10 09:12:10;;;;;;;7.23;4.80;;;;;;;;;;5084944;28;20191;-79
2021/11/10 09:14:36;;;;;;;7.83;4.57;;;;;;;;;;5089331;28;20184;-79
2021/11/10 09:17:02;;;;;;;6.63;4.53;;;;;;;;;;5078968;28;20597;-79
2021/11/10 09:19:28;;;;;;;5.63;4.43;;;;;;;;;;5087209;28;20184;-79
2021/11/10 09:21:54;;;;;;;5.27;4.33;;;;;;;;;;5085595;28;20574;-79
2021/11/10 09:24:20;;;;;;;8.60;5.33;;;;;;;;;;5089535;28;20705;-78
2021/11/10 09:26:48;;;;;;;6.23;4.93;;;;;;;;;;5067814;28;20734;-79
2021/11/10 09:29:16;;;;;;;6.50;5.43;;;;;;;;;;5069361;28;20649;-79
2021/11/10 09:31:43;;;;;;;7.70;5.50;;;;;;;;;;5075022;28;20251;-78
2021/11/10 09:34:11;;;;;;;11.27;5.00;;;;;;;;;;5067338;28;20168;-79
2021/11/10 09:36:39;;;;;;;6.47;5.47;;;;;;;;;;5070450;28;20240;-80
2021/11/10 09:39:06;;;;;;;7.00;5.33;;;;;;;;;;5072525;28;20163;-80
2021/11/10 09:41:33;;;;;;;9.63;6.37;;;;;;;;;;5090288;28;20192;-78
2021/11/10 09:43:59;;;;;;;8.10;5.53;;;;;;;;;;5063819;28;20172;-79
2021/11/10 09:46:25;;;;;;;10.13;6.27;;;;;;;;;;5079239;28;20660;-80
2021/11/10 09:48:52;;;;;;;8.30;6.33;;;;;;;;;;5063056;28;20227;-81
2021/11/10 09:51:19;;;;;;;8.10;6.37;;;;;;;;;;5069659;28;20259;-79
2021/11/10 09:53:45;;;;;;;9.83;7.27;;;;;;;;;;5091407;28;20184;-80
2021/11/10 09:56:11;;;;;;;10.87;6.87;;;;;;;;;;5071666;28;20222;-79
2021/11/10 09:58:39;;;;;;;11.63;7.03;;;;;;;;;;5079714;28;20229;-79
2021/11/10 10:01:06;;;;;;;9.80;7.07;;;;;;;;;;5066445;28;20184;-79
2021/11/10 10:03:34;;;;;;;17.60;7.20;;;;;;;;;;5074675;28;20203;-79
2021/11/10 10:06:00;;;;;;;8.40;6.70;;;;;;;;;;5082121;28;20282;-79
2021/11/10 10:08:27;;;;;;;13.33;7.40;;;;;;;;;;5081150;28;20176;-79
2021/11/10 10:10:54;;;;;;;11.23;7.13;;;;;;;;;;5076869;28;20678;-78
2021/11/10 10:13:20;;;;;;;11.57;7.47;;;;;;;;;;5073521;28;20180;-79
2021/11/10 10:15:48;;;;;;;9.13;6.30;;;;;;;;;;5072142;28;20177;-78
2021/11/10 10:18:14;;;;;;;11.33;7.43;;;;;;;;;;5096377;28;20578;-79
2021/11/10 10:20:41;;;;;;;12.10;6.70;;;;;;;;;;5072083;28;20199;-79
2021/11/10 10:23:12;;;;;;;13.87;8.03;;;;;;;;;;5088734;28;20243;-77
2021/11/10 10:25:42;;;;;;;10.70;7.33;;;;;;;;;;5095770;28;20176;-78
2021/11/10 10:28:09;;;;;;;9.03;7.30;;;;;;;;;;5082148;28;20179;-79
2021/11/10 10:30:43;;;;;;;6.83;6.10;;;;;;;;;;5082564;28;20192;-79
2021/11/10 10:33:14;;;;;;;8.93;7.50;;;;;;;;;;5093239;28;20939;-79
2021/11/10 10:35:52;;;;;;;9.47;7.03;;;;;;;;;;5065644;28;20611;-79
2021/11/10 10:38:20;;;;;;;8.07;6.77;;;;;;;;;;5087482;28;20180;-79
2021/11/10 10:40:47;;;;;;;9.47;6.53;;;;;;;;;;5092615;28;20180;-79
2021/11/10 10:43:15;;;;;;;15.23;7.23;;;;;;;;;;5092136;28;20238;-79
2021/11/10 10:45:47;;;;;;;8.77;6.93;;;;;;;;;;5076185;28;20186;-79
2021/11/10 10:48:15;;;;;;;11.80;6.73;;;;;;;;;;5098653;28;20220;-77
2021/11/10 10:50:46;;;;;;;8.53;6.87;;;;;;;;;;5091898;28;20394;-79
2021/11/10 10:53:13;;;;;;;8.63;7.30;;;;;;;;;;5073941;28;20184;-79
2021/11/10 10:55:41;;;;;;;11.53;7.40;;;;;;;;;;5068130;28;20169;-80
2021/11/10 10:58:09;;;;;;;11.53;8.17;;;;;;;;;;5087936;28;20218;-79
2021/11/10 11:00:37;;;;;;;10.10;7.93;;;;;;;;;;5068262;28;20729;-79
2021/11/10 11:03:15;;;;;;;9.77;7.47;;;;;;;;;;5082250;28;20199;-78
2021/11/10 11:05:41;;;;;;;13.00;6.77;;;;;;;;;;5086821;28;20195;-78
2021/11/10 11:08:27;;;;;;;8.30;7.13;;;;;;;;;;5071282;28;20183;-79
2021/11/10 11:10:55;;;;;;;8.07;7.07;;;;;;;;;;5073282;28;20711;-78
2021/11/10 11:13:25;;;;;;;8.93;7.33;;;;;;;;;;5067894;28;20187;-78
2021/11/10 11:16:07;;;;;;;11.17;7.67;;;;;;;;;;5071003;28;20342;-78
2021/11/10 11:18:33;;;;;;;8.63;6.80;;;;;;;;;;5070327;28;20227;-80
2021/11/10 11:21:16;;;;;;;11.53;8.13;;;;;;;;;;5088717;28;20172;-78
2021/11/10 11:23:42;;;;;;;10.03;7.73;;;;;;;;;;5062629;28;20176;-78
2021/11/10 11:26:28;;;;;;;9.93;7.13;;;;;;;;;;5067678;28;20184;-78
2021/11/10 11:28:54;;;;;;;9.67;6.83;;;;;;;;;;5079825;28;20168;-79
2021/11/10 11:31:30;;;;;;;8.27;6.97;;;;;;;;;;5086873;28;20246;-78
2021/11/10 11:33:56;;;;;;;9.53;7.60;;;;;;;;;;5066218;28;20236;-79
2021/11/10 11:36:23;;;;;;;9.37;7.63;;;;;;;;;;5084066;28;20180;-78
2021/11/10 11:38:49;;;;;;;10.47;6.70;;;;;;;;;;5083324;28;20203;-79
2021/11/10 11:41:17;;;;;;;14.07;7.50;;;;;;;;;;5064944;28;20195;-78
2021/11/10 11:43:43;;;;;;;8.63;6.60;;;;;;;;;;5063615;28;20195;-79
2021/11/10 11:46:09;;;;;;;6.87;5.77;;;;;;;;;;5088592;28;20615;-78
2021/11/10 11:48:35;;;;;;;9.60;6.97;;;;;;;;;;5088216;28;20520;-79
2021/11/10 11:51:08;;;;;;;9.37;6.67;;;;;;;;;;5068677;28;20674;-80
2021/11/10 11:53:35;;;;;;;9.73;6.40;;;;;;;;;;5082405;28;20206;-78
2021/11/10 11:56:05;;;;;;;10.23;7.30;;;;;;;;;;5098470;28;20211;-80
2021/11/10 11:58:33;;;;;;;7.17;6.40;;;;;;;;;;5080416;28;20182;-80
2021/11/10 12:01:03;;;;;;;8.27;6.83;;;;;;;;;;5094261;28;20179;-79
2021/11/10 12:03:49;;;;;;;8.87;7.03;;;;;;;;;;5080847;28;20259;-79
2021/11/10 12:06:17;;;;;;;9.33;6.53;;;;;;;;;;5077239;28;20249;-79
2021/11/10 12:08:47;;;;;;;8.40;6.73;;;;;;;;;;5087251;28;20286;-78
2021/11/10 12:11:22;;;;;;;8.00;6.57;;;;;;;;;;5073554;28;20249;-79
2021/11/10 12:13:57;;;;;;;8.30;6.67;;;;;;;;;;5074896;28;20180;-79
2021/11/10 12:16:23;;;;;;;11.80;6.50;;;;;;;;;;5076883;28;20198;-79
2021/11/10 12:19:00;;;;;;;8.70;7.30;;;;;;;;;;5074510;28;20203;-80
2021/11/10 12:21:34;;;;;;;8.73;7.30;;;;;;;;;;5063056;28;20191;-79
2021/11/10 12:24:05;;;;;;;10.80;7.57;;;;;;;;;;5094102;28;21047;-79
2021/11/10 12:26:31;;;;;;;8.27;6.90;;;;;;;;;;5068356;28;20179;-78
2021/11/10 12:28:58;;;;;;;8.53;6.63;;;;;;;;;;5088629;28;20258;-79
2021/11/10 12:31:28;;;;;;;7.77;6.67;;;;;;;;;;5068534;28;20286;-79
2021/11/10 12:34:04;;;;;;;7.70;6.47;;;;;;;;;;5074450;28;20643;-79
2021/11/10 12:36:49;;;;;;;9.27;7.20;;;;;;;;;;5092229;28;20199;-79
2021/11/10 12:39:15;;;;;;;12.80;6.47;;;;;;;;;;5077607;28;20658;-79
2021/11/10 12:41:48;;;;;;;8.00;6.20;;;;;;;;;;5067758;28;20183;-78
2021/11/10 12:44:26;;;;;;;7.40;6.60;;;;;;;;;;5093540;28;20168;-79
2021/11/10 12:46:53;;;;;;;9.87;7.40;;;;;;;;;;5099442;28;20197;-79
2021/11/10 12:49:19;;;;;;;7.07;6.13;;;;;;;;;;5098786;28;20405;-79
2021/11/10 12:51:45;;;;;;;10.97;6.90;;;;;;;;;;5076750;28;20220;-80
2021/11/10 12:54:25;;;;;;;11.50;6.93;;;;;;;;;;5081427;28;20603;-79
2021/11/10 12:56:52;;;;;;;8.57;6.70;;;;;;;;;;5077916;28;20184;-79
2021/11/10 12:59:26;;;;;;;11.37;6.43;;;;;;;;;;5078341;28;20216;-79
2021/11/10 13:01:54;;;;;;;8.60;6.43;;;;;;;;;;5078006;28;20540;-80
2021/11/10 13:04:24;;;;;;;8.57;6.90;;;;;;;;;;5098374;28;20203;-80
2021/11/10 13:06:54;;;;;;;8.93;6.50;;;;;;;;;;5080429;28;20187;-80
2021/11/10 13:11:54;;;;;;;7.80;6.53;;;;;;;;;;5099869;28;20230;-79
2021/11/10 13:14:21;;;;;;;7.13;6.10;;;;;;;;;;5097455;28;20175;-79
2021/11/10 13:16:59;;;;;;;8.90;6.73;;;;;;;;;;5092758;28;20191;-80
2021/11/10 13:19:40;;;;;;;8.37;6.93;;;;;;;;;;5091277;28;20183;-78
2021/11/10 13:22:08;;;;;;;8.77;6.80;;;;;;;;;;5095705;28;20176;-78
2021/11/10 13:24:34;;;;;;;10.50;6.60;;;;;;;;;;5093948;28;20180;-80
2021/11/10 13:27:00;;;;;;;8.17;7.00;;;;;;;;;;5075267;28;20183;-80
2021/11/10 13:29:27;;;;;;;8.53;6.80;;;;;;;;;;5058942;28;20520;-80
2021/11/10 13:32:13;;;;;;;9.27;6.83;;;;;;;;;;5072388;28;20249;-78
2021/11/10 13:34:59;;;;;;;10.70;7.00;;;;;;;;;;5096650;28;20998;-79
2021/11/10 13:37:27;;;;;;;9.20;6.53;;;;;;;;;;5076832;28;20183;-80
2021/11/10 13:39:59;;;;;;;8.90;6.40;;;;;;;;;;5096053;28;20168;-78
2021/11/10 13:42:27;;;;;;;8.80;6.37;;;;;;;;;;5071855;28;20187;-79
2021/11/10 13:45:06;;;;;;;9.53;6.80;;;;;;;;;;5062818;28;20225;-79
2021/11/10 13:47:32;;;;;;;7.33;6.27;;;;;;;;;;5064426;28;20530;-78
2021/11/10 13:49:58;;;;;;;11.27;7.60;;;;;;;;;;5071571;28;20685;-79
2021/11/10 13:52:26;;;;;;;8.40;6.70;;;;;;;;;;5091803;28;20199;-78
2021/11/10 13:55:11;;;;;;;8.97;7.33;;;;;;;;;;5062127;28;20287;-79
2021/11/10 13:57:40;;;;;;;9.30;7.83;;;;;;;;;;5064219;28;20188;-79
2021/11/10 14:00:14;;;;;;;8.97;6.73;;;;;;;;;;5059487;28;20577;-80
2021/11/10 14:02:48;;;;;;;9.00;7.00;;;;;;;;;;5078521;28;20222;-81
2021/11/10 14:05:17;;;;;;;10.87;7.73;;;;;;;;;;5073081;28;20180;-79
2021/11/10 14:07:43;;;;;;;13.43;7.27;;;;;;;;;;5077069;28;20184;-80
2021/11/10 14:10:16;;;;;;;10.50;8.07;;;;;;;;;;5087567;28;20671;-80
2021/11/10 14:12:44;;;;;;;10.10;7.70;;;;;;;;;;5072494;28;20179;-79
2021/11/10 14:15:12;;;;;;;14.03;8.30;;;;;;;;;;5062233;28;20177;-79
2021/11/10 14:17:40;;;;;;;11.23;7.80;;;;;;;;;;5076548;28;20179;-79
2021/11/10 14:20:08;;;;;;;13.90;7.83;;;;;;;;;;5094900;28;20629;-80
2021/11/10 14:22:34;;;;;;;13.13;9.00;;;;;;;;;;5063108;28;20276;-79
2021/11/10 14:25:03;;;;;;;14.40;8.70;;;;;;;;;;5085049;28;20176;-78
2021/11/10 14:27:39;;;;;;;11.73;9.03;;;;;;;;;;5069809;28;20303;-79
2021/11/10 14:30:06;;;;;;;11.83;8.80;;;;;;;;;;5060967;28;20200;-80
2021/11/10 14:32:34;;;;;;;12.60;9.00;;;;;;;;;;5069280;28;20577;-80
2021/11/10 14:35:01;;;;;;;22.67;9.37;;;;;;;;;;5087703;28;20176;-82
2021/11/10 14:37:27;;;;;;;18.07;9.87;;;;;;;;;;5062498;28;20189;-80
2021/11/10 14:39:53;;;;;;;14.60;9.87;;;;;;;;;;5090803;28;20835;-80
2021/11/10 14:42:29;;;;;;;11.40;9.03;;;;;;;;;;5092892;28;20180;-80
2021/11/10 14:44:55;;;;;;;10.73;8.87;;;;;;;;;;5067758;28;20283;-80
2021/11/10 14:47:21;;;;;;;12.73;8.93;;;;;;;;;;5089941;28;20176;-80